Time;durP1;ratioP1;P1;durP2;ratioP2;P2;SDS_P1;SDS_P2;PMS_P1;PMS_P2;Temp;Humidity;BMP_temperature;BMP_pressure;BME280_temperature;BME280_humidity;BME280_pressure;Samples;Min_cycle;Max_cycle;Signal;HPM_P1;HPM_P2
2022/01/02 00:00:00;;;;;;;;;;;0.90;99.90;;;;;;4981467;28;19922;-83
2022/01/02 00:02:31;;;;;;;;;;;0.90;99.90;;;;;;4971496;28;19939;-83
2022/01/02 00:05:02;;;;;;;;;;;0.90;99.90;;;;;;4966445;28;20010;-83
2022/01/02 00:07:30;;;;;;;;;;;0.90;99.90;;;;;;4969974;28;19930;-83
2022/01/02 00:09:59;;;;;;;;;;;0.90;99.90;;;;;;4965567;28;19973;-83
2022/01/02 00:12:27;;;;;;;;;;;0.90;99.90;;;;;;4971472;28;20672;-83
2022/01/02 00:14:55;;;;;;;;;;;1.00;99.90;;;;;;4979366;28;19930;-83
2022/01/02 00:17:23;;;;;;;;;;;1.00;99.90;;;;;;4973459;28;19952;-83
2022/01/02 00:19:54;;;;;;;;;;;1.00;99.90;;;;;;4978159;28;19937;-83
2022/01/02 00:22:27;;;;;;;;;;;1.00;99.90;;;;;;4987501;28;19922;-83
2022/01/02 00:24:54;;;;;;;;;;;1.00;99.90;;;;;;4963520;28;20717;-83
2022/01/02 00:27:22;;;;;;;;;;;1.00;99.90;;;;;;4974328;28;20054;-83
2022/01/02 00:29:49;;;;;;;;;;;1.00;99.90;;;;;;4958567;28;19929;-83
2022/01/02 00:32:16;;;;;;;;;;;1.00;99.90;;;;;;4967014;28;20383;-83
2022/01/02 00:34:45;;;;;;;;;;;1.00;99.90;;;;;;4962797;28;19937;-83
2022/01/02 00:37:12;;;;;;;;;;;1.00;99.90;;;;;;4964219;28;19966;-83
2022/01/02 00:39:39;;;;;;;;;;;1.00;99.90;;;;;;4964198;28;20564;-83
2022/01/02 00:42:07;;;;;;;;;;;1.00;99.90;;;;;;4971467;28;19922;-83
2022/01/02 00:44:57;;;;;;;;;;;0.90;99.90;;;;;;4964889;28;19929;-83
2022/01/02 00:47:43;;;;;;;;;;;0.90;99.90;;;;;;4977734;28;19973;-83
2022/01/02 00:50:15;;;;;;;;;;;0.90;99.90;;;;;;4985150;28;19926;-83
2022/01/02 00:52:43;;;;;;;;;;;1.00;99.90;;;;;;4968360;28;19926;-83
2022/01/02 00:55:11;;;;;;;;;;;1.00;99.90;;;;;;4972732;28;20957;-83
2022/01/02 00:57:39;;;;;;;;;;;0.90;99.90;;;;;;4987463;28;19957;-83
2022/01/02 01:00:16;;;;;;;;;;;1.00;99.90;;;;;;4970230;28;20008;-83
2022/01/02 01:02:52;;;;;;;;;;;1.00;99.90;;;;;;4975001;28;19930;-83
2022/01/02 01:05:30;;;;;;;;;;;1.00;99.90;;;;;;4971398;28;19948;-83
2022/01/02 01:07:58;;;;;;;;;;;1.00;99.90;;;;;;4990312;28;19926;-83
2022/01/02 01:10:27;;;;;;;;;;;1.00;99.90;;;;;;4978770;28;19922;-83
2022/01/02 01:12:55;;;;;;;;;;;1.00;99.90;;;;;;4970141;28;20133;-83
2022/01/02 01:15:23;;;;;;;;;;;1.00;99.90;;;;;;4965402;28;19973;-83
2022/01/02 01:17:55;;;;;;;;;;;1.00;99.90;;;;;;4969422;28;20460;-83
2022/01/02 01:20:26;;;;;;;;;;;1.00;99.90;;;;;;4968610;28;19926;-83
2022/01/02 01:22:53;;;;;;;;;;;1.00;99.90;;;;;;4966060;28;20111;-83
2022/01/02 01:25:21;;;;;;;;;;;1.10;99.90;;;;;;4968661;28;20008;-83
2022/01/02 01:27:49;;;;;;;;;;;1.10;99.90;;;;;;4969759;28;19996;-83
2022/01/02 01:30:17;;;;;;;;;;;1.10;99.90;;;;;;4980204;28;20399;-83
2022/01/02 01:32:49;;;;;;;;;;;1.10;99.90;;;;;;2474732;28;10021945;-83
2022/01/02 01:35:16;;;;;;;;;;;1.10;99.90;;;;;;3927786;28;10001322;-83
2022/01/02 01:37:44;;;;;;;;;;;1.10;99.90;;;;;;4975173;28;19930;-83
2022/01/02 01:40:15;;;;;;;;;;;1.10;99.90;;;;;;4982077;28;19981;-83
2022/01/02 01:42:54;;;;;;;;;;;1.10;99.90;;;;;;4978877;28;20328;-83
2022/01/02 01:47:54;;;;;;;;;;;1.10;99.90;;;;;;4969705;28;19932;-83
2022/01/02 01:50:23;;;;;;;;;;;1.10;99.90;;;;;;4973447;28;19922;-84
2022/01/02 01:52:49;;;;;;;;;;;1.10;99.90;;;;;;4977365;28;19981;-84
2022/01/02 01:55:16;;;;;;;;;;;1.10;99.90;;;;;;4964676;28;19934;-84
2022/01/02 01:57:43;;;;;;;;;;;1.10;99.90;;;;;;4981462;28;20021;-84
2022/01/02 02:00:15;;;;;;;;;;;1.20;99.90;;;;;;4966633;28;20388;-84
2022/01/02 02:02:46;;;;;;;;;;;1.20;99.90;;;;;;4964587;28;20632;-84
2022/01/02 02:05:16;;;;;;;;;;;1.20;99.90;;;;;;4967930;28;20541;-84
2022/01/02 02:07:47;;;;;;;;;;;1.20;99.90;;;;;;4981133;28;20608;-84
2022/01/02 02:10:25;;;;;;;;;;;1.20;99.90;;;;;;4983249;28;19925;-84
2022/01/02 02:12:57;;;;;;;;;;;1.20;99.90;;;;;;4965185;28;19926;-84
2022/01/02 02:15:27;;;;;;;;;;;1.30;99.90;;;;;;4961377;28;19992;-84
2022/01/02 02:17:54;;;;;;;;;;;1.30;99.90;;;;;;4964559;28;19922;-84
2022/01/02 02:20:26;;;;;;;;;;;1.30;99.90;;;;;;4959607;28;19969;-84
2022/01/02 02:22:55;;;;;;;;;;;1.40;99.90;;;;;;4981535;28;20309;-84
2022/01/02 02:25:24;;;;;;;;;;;1.40;99.90;;;;;;4970903;28;19928;-84
2022/01/02 02:27:56;;;;;;;;;;;1.30;99.90;;;;;;4982894;28;20017;-84
2022/01/02 02:30:24;;;;;;;;;;;1.40;99.90;;;;;;4981783;28;19930;-84
2022/01/02 02:32:53;;;;;;;;;;;1.40;99.90;;;;;;4946263;28;19933;-84
2022/01/02 02:35:21;;;;;;;;;;;1.50;99.90;;;;;;4964473;28;19992;-84
2022/01/02 02:37:48;;;;;;;;;;;1.50;99.90;;;;;;4972406;28;19997;-84
2022/01/02 02:40:20;;;;;;;;;;;1.50;99.90;;;;;;4977638;28;19926;-84
2022/01/02 02:42:52;;;;;;;;;;;1.50;99.90;;;;;;4968153;28;19969;-84
2022/01/02 02:51:11;;;;;;;;;;;1.60;99.90;;;;;;4944884;28;19926;-84
2022/01/02 02:53:40;;;;;;;;;;;1.60;99.90;;;;;;4946764;28;19933;-84
2022/01/02 02:56:25;;;;;;;;;;;1.70;99.90;;;;;;4973433;28;20001;-84
2022/01/02 02:58:57;;;;;;;;;;;1.70;99.90;;;;;;4966195;28;19922;-84
2022/01/02 03:01:27;;;;;;;;;;;1.70;99.90;;;;;;4966666;28;20333;-84
2022/01/02 03:03:56;;;;;;;;;;;1.70;99.90;;;;;;4977640;28;19930;-84
2022/01/02 03:06:23;;;;;;;;;;;1.70;99.90;;;;;;4980883;28;20082;-84
2022/01/02 03:08:51;;;;;;;;;;;1.80;99.90;;;;;;4965034;28;19922;-83
2022/01/02 03:11:20;;;;;;;;;;;1.80;99.90;;;;;;4964881;28;19927;-84
2022/01/02 03:13:49;;;;;;;;;;;1.80;99.90;;;;;;4967960;28;19944;-83
2022/01/02 03:16:17;;;;;;;;;;;1.90;99.90;;;;;;4981879;28;19973;-84
2022/01/02 03:18:44;;;;;;;;;;;1.80;99.90;;;;;;4965779;28;20021;-83
2022/01/02 03:21:11;;;;;;;;;;;1.90;99.90;;;;;;4966359;28;20323;-84
2022/01/02 03:23:38;;;;;;;;;;;1.90;99.90;;;;;;4966074;28;19953;-84
2022/01/02 03:26:05;;;;;;;;;;;1.90;99.90;;;;;;4982759;28;19952;-83
2022/01/02 03:28:33;;;;;;;;;;;1.90;99.90;;;;;;4963594;28;19928;-84
2022/01/02 03:31:00;;;;;;;;;;;2.00;99.90;;;;;;4952574;28;19922;-83
2022/01/02 03:33:38;;;;;;;;;;;2.00;99.90;;;;;;1246676;28;10022020;-83
2022/01/02 03:36:05;;;;;;;;;;;1.90;99.90;;;;;;4965604;28;19949;-83
2022/01/02 03:38:36;;;;;;;;;;;2.00;99.90;;;;;;4974401;28;19957;-83
2022/01/02 03:41:03;;;;;;;;;;;2.00;99.90;;;;;;4967159;28;19933;-83
2022/01/02 03:43:31;;;;;;;;;;;2.00;99.90;;;;;;4966825;28;20256;-83
2022/01/02 03:46:02;;;;;;;;;;;2.00;99.90;;;;;;4981748;28;19926;-83
2022/01/02 03:48:33;;;;;;;;;;;2.10;99.90;;;;;;4986830;28;20043;-83
2022/01/02 03:51:04;;;;;;;;;;;2.10;99.90;;;;;;4981857;28;19921;-83
2022/01/02 03:53:31;;;;;;;;;;;2.10;99.90;;;;;;4963914;28;19981;-83
2022/01/02 03:55:58;;;;;;;;;;;2.10;99.90;;;;;;4983563;28;19922;-83
2022/01/02 03:58:28;;;;;;;;;;;2.10;99.90;;;;;;4976539;28;19934;-83
2022/01/02 04:00:55;;;;;;;;;;;2.20;99.90;;;;;;4967058;28;20434;-83
2022/01/02 04:03:23;;;;;;;;;;;2.20;99.90;;;;;;4981435;28;19994;-83
2022/01/02 04:05:49;;;;;;;;;;;2.20;99.90;;;;;;4967214;28;20251;-83
2022/01/02 04:08:16;;;;;;;;;;;2.20;99.90;;;;;;4967051;28;19934;-83
2022/01/02 04:10:44;;;;;;;;;;;2.20;99.90;;;;;;4979114;28;20313;-83
2022/01/02 04:13:11;;;;;;;;;;;2.30;99.90;;;;;;4965539;28;20296;-83
2022/01/02 04:15:38;;;;;;;;;;;2.30;99.90;;;;;;4965706;28;19941;-83
2022/01/02 04:18:06;;;;;;;;;;;2.30;99.90;;;;;;4967415;28;20692;-83
2022/01/02 04:20:34;;;;;;;;;;;2.40;99.90;;;;;;4980057;28;19929;-83
2022/01/02 04:23:02;;;;;;;;;;;2.40;99.90;;;;;;4961034;28;20343;-83
2022/01/02 04:25:29;;;;;;;;;;;2.40;99.90;;;;;;4951164;28;20298;-83
2022/01/02 04:27:56;;;;;;;;;;;2.40;99.90;;;;;;4980440;28;19921;-83
2022/01/02 04:30:23;;;;;;;;;;;2.40;99.90;;;;;;4964625;28;19928;-83
2022/01/02 04:32:52;;;;;;;;;;;2.50;99.90;;;;;;4964922;28;20785;-83
2022/01/02 04:35:22;;;;;;;;;;;2.50;99.90;;;;;;4963848;28;19922;-83
2022/01/02 04:37:50;;;;;;;;;;;2.60;99.90;;;;;;4966868;28;19926;-83
2022/01/02 04:40:17;;;;;;;;;;;2.60;99.90;;;;;;4964392;28;19941;-83
2022/01/02 04:42:44;;;;;;;;;;;2.60;99.90;;;;;;4981604;28;20363;-83
2022/01/02 04:45:11;;;;;;;;;;;2.60;99.90;;;;;;4978018;28;19941;-83
2022/01/02 04:47:38;;;;;;;;;;;2.60;99.90;;;;;;4981666;28;19926;-83
2022/01/02 04:50:06;;;;;;;;;;;2.60;99.90;;;;;;4964431;28;19925;-83
2022/01/02 04:52:33;;;;;;;;;;;2.60;99.90;;;;;;4952055;28;19933;-83
2022/01/02 04:55:00;;;;;;;;;;;2.70;99.90;;;;;;4963152;28;20024;-83
2022/01/02 04:57:27;;;;;;;;;;;2.70;99.90;;;;;;4981527;28;20444;-83
2022/01/02 04:59:55;;;;;;;;;;;2.70;99.90;;;;;;4971413;28;20356;-83
2022/01/02 05:02:22;;;;;;;;;;;2.80;99.90;;;;;;4965472;28;19933;-83
2022/01/02 05:04:51;;;;;;;;;;;2.80;99.90;;;;;;4976362;28;20557;-83
2022/01/02 05:07:18;;;;;;;;;;;2.80;99.90;;;;;;4959327;28;19922;-83
2022/01/02 05:09:45;;;;;;;;;;;2.80;99.90;;;;;;4952893;28;19944;-83
2022/01/02 05:12:12;;;;;;;;;;;2.90;99.90;;;;;;4964955;28;19923;-83
2022/01/02 05:14:39;;;;;;;;;;;2.90;99.90;;;;;;4958628;28;20429;-83
2022/01/02 05:17:06;;;;;;;;;;;2.90;99.90;;;;;;4962550;28;20014;-83
2022/01/02 05:19:34;;;;;;;;;;;2.90;99.90;;;;;;4963924;28;20287;-83
2022/01/02 05:22:01;;;;;;;;;;;3.00;99.90;;;;;;4965906;28;19922;-83
2022/01/02 05:24:28;;;;;;;;;;;3.00;99.90;;;;;;4973860;28;19985;-83
2022/01/02 05:26:56;;;;;;;;;;;3.00;99.90;;;;;;4970012;28;19922;-83
2022/01/02 05:29:23;;;;;;;;;;;3.10;99.90;;;;;;4966389;28;20024;-84
2022/01/02 05:32:07;;;;;;;;;;;3.10;99.90;;;;;;4007394;28;10000275;-83
2022/01/02 05:34:34;;;;;;;;;;;3.20;99.90;;;;;;2724880;28;10002001;-83
2022/01/02 05:37:03;;;;;;;;;;;3.30;99.90;;;;;;4965338;28;19934;-83
2022/01/02 05:39:32;;;;;;;;;;;3.30;99.90;;;;;;4958798;28;20407;-83
2022/01/02 05:41:59;;;;;;;;;;;3.30;99.90;;;;;;4947844;28;20686;-83
2022/01/02 05:44:26;;;;;;;;;;;3.40;99.90;;;;;;4941817;28;19923;-83
2022/01/02 05:46:53;;;;;;;;;;;3.40;99.90;;;;;;4949527;28;19969;-83
2022/01/02 05:49:21;;;;;;;;;;;3.40;99.90;;;;;;4947967;28;20277;-83
2022/01/02 05:51:48;;;;;;;;;;;3.50;99.90;;;;;;4948502;28;19938;-83
2022/01/02 05:54:15;;;;;;;;;;;3.60;99.90;;;;;;4949918;28;19936;-83
2022/01/02 05:56:44;;;;;;;;;;;3.60;99.90;;;;;;4962345;28;19997;-83
2022/01/02 05:59:11;;;;;;;;;;;3.70;99.90;;;;;;4944642;28;19932;-83
2022/01/02 06:01:38;;;;;;;;;;;3.80;99.90;;;;;;4945594;28;19932;-83
2022/01/02 06:04:05;;;;;;;;;;;3.80;99.90;;;;;;4955531;28;19922;-83
2022/01/02 06:06:32;;;;;;;;;;;3.90;99.90;;;;;;4947993;28;19988;-83
2022/01/02 06:08:59;;;;;;;;;;;4.00;99.90;;;;;;4948063;28;20380;-83
2022/01/02 06:11:28;;;;;;;;;;;4.00;99.90;;;;;;4944730;28;20033;-83
2022/01/02 06:13:56;;;;;;;;;;;4.10;99.90;;;;;;4949460;28;19926;-82
2022/01/02 06:16:24;;;;;;;;;;;4.20;99.90;;;;;;4942083;28;19923;-82
2022/01/02 06:18:53;;;;;;;;;;;4.30;99.90;;;;;;4949109;28;19966;-83
2022/01/02 06:21:20;;;;;;;;;;;4.40;99.90;;;;;;4947630;28;19923;-83
2022/01/02 06:23:47;;;;;;;;;;;4.40;99.90;;;;;;4962825;28;19930;-83
2022/01/02 06:26:14;;;;;;;;;;;4.40;99.90;;;;;;4950209;28;19927;-82
2022/01/02 06:28:41;;;;;;;;;;;4.50;99.90;;;;;;4947502;28;20454;-82
2022/01/02 06:31:09;;;;;;;;;;;4.60;99.90;;;;;;4963293;28;19930;-82
2022/01/02 06:33:36;;;;;;;;;;;4.60;99.90;;;;;;4962589;28;20109;-82
2022/01/02 06:36:03;;;;;;;;;;;4.60;99.90;;;;;;4961372;28;20316;-82
2022/01/02 06:38:30;;;;;;;;;;;4.60;99.90;;;;;;4963413;28;19973;-82
2022/01/02 06:40:57;;;;;;;;;;;4.70;99.90;;;;;;4954331;28;19923;-83
2022/01/02 06:43:24;;;;;;;;;;;4.70;99.90;;;;;;4963745;28;20017;-82
2022/01/02 06:45:51;;;;;;;;;;;4.70;99.90;;;;;;4948000;28;19985;-82
2022/01/02 06:48:18;;;;;;;;;;;4.70;99.90;;;;;;4950024;28;19972;-82
2022/01/02 06:50:45;;;;;;;;;;;4.80;99.90;;;;;;4948101;28;19923;-82
2022/01/02 06:53:12;;;;;;;;;;;4.80;99.90;;;;;;4949493;28;19926;-82
2022/01/02 06:55:39;;;;;;;;;;;4.90;99.90;;;;;;4945046;28;19926;-82
2022/01/02 06:58:07;;;;;;;;;;;4.90;99.90;;;;;;4960880;28;19945;-82
2022/01/02 07:00:34;;;;;;;;;;;4.90;99.90;;;;;;4959509;28;19927;-83
2022/01/02 07:03:03;;;;;;;;;;;4.90;99.90;;;;;;4948686;28;19929;-83
2022/01/02 07:05:30;;;;;;;;;;;4.90;99.90;;;;;;4949399;28;19953;-83
2022/01/02 07:07:58;;;;;;;;;;;4.90;99.90;;;;;;4947952;28;20087;-83
2022/01/02 07:10:27;;;;;;;;;;;5.00;99.90;;;;;;4958891;28;19938;-83
2022/01/02 07:12:54;;;;;;;;;;;5.00;99.90;;;;;;4940144;28;20017;-83
2022/01/02 07:15:21;;;;;;;;;;;5.10;99.90;;;;;;4948060;28;19926;-83
2022/01/02 07:17:48;;;;;;;;;;;5.10;99.90;;;;;;4948916;28;19938;-83
2022/01/02 07:20:14;;;;;;;;;;;5.20;99.90;;;;;;4930097;29;19985;-83
2022/01/02 07:22:42;;;;;;;;;;;5.20;99.90;;;;;;4946497;28;19931;-83
2022/01/02 07:25:10;;;;;;;;;;;5.20;99.90;;;;;;4955320;28;20082;-84
2022/01/02 07:27:36;;;;;;;;;;;5.30;99.90;;;;;;4945164;28;20005;-83
2022/01/02 07:30:04;;;;;;;;;;;5.20;99.90;;;;;;4948430;28;20354;-83
2022/01/02 07:32:50;;;;;;;;;;;5.20;99.90;;;;;;2610921;28;10001982;-83
2022/01/02 07:35:17;;;;;;;;;;;5.30;99.90;;;;;;3940180;28;10001520;-83
2022/01/02 07:37:44;;;;;;;;;;;5.20;99.90;;;;;;4963918;28;19930;-83
2022/01/02 07:40:11;;;;;;;;;;;5.20;99.90;;;;;;4981326;28;19997;-83
2022/01/02 07:42:38;;;;;;;;;;;5.20;99.90;;;;;;4964461;28;20260;-83
2022/01/02 07:45:12;;;;;;;;;;;5.20;99.90;;;;;;4978552;28;19926;-83
2022/01/02 07:47:39;;;;;;;;;;;5.20;99.90;;;;;;4973062;28;20326;-83
2022/01/02 07:50:07;;;;;;;;;;;5.20;99.90;;;;;;4966063;28;19980;-83
2022/01/02 07:52:33;;;;;;;;;;;5.20;99.90;;;;;;4966055;28;20035;-83
2022/01/02 07:55:00;;;;;;;;;;;5.20;99.90;;;;;;4966782;28;20189;-83
2022/01/02 07:57:27;;;;;;;;;;;5.20;99.90;;;;;;4965387;28;19933;-83
2022/01/02 07:59:54;;;;;;;;;;;5.20;99.90;;;;;;4978964;28;19977;-83
2022/01/02 08:02:40;;;;;;;;;;;5.20;99.90;;;;;;4964789;28;19922;-83
2022/01/02 08:05:10;;;;;;;;;;;5.20;99.90;;;;;;4968640;28;19930;-83
2022/01/02 08:07:37;;;;;;;;;;;5.20;99.90;;;;;;4981032;28;19933;-83
2022/01/02 08:10:04;;;;;;;;;;;5.20;99.90;;;;;;4965989;28;19972;-83
2022/01/02 08:12:31;;;;;;;;;;;5.20;99.90;;;;;;4964966;28;19960;-83
2022/01/02 08:14:58;;;;;;;;;;;5.20;99.90;;;;;;4972521;28;19926;-83
2022/01/02 08:17:27;;;;;;;;;;;5.30;99.90;;;;;;4966356;28;19926;-83
2022/01/02 08:19:54;;;;;;;;;;;5.30;99.90;;;;;;4965676;28;20595;-83
2022/01/02 08:22:21;;;;;;;;;;;5.40;99.90;;;;;;4963657;28;19954;-83
2022/01/02 08:24:48;;;;;;;;;;;5.40;99.90;;;;;;4973755;28;19922;-84
2022/01/02 08:27:15;;;;;;;;;;;5.50;99.90;;;;;;4965100;28;20032;-83
2022/01/02 08:29:42;;;;;;;;;;;5.50;99.90;;;;;;4979074;28;19926;-83
2022/01/02 08:32:09;;;;;;;;;;;5.50;99.90;;;;;;4967445;28;19957;-84
2022/01/02 08:34:36;;;;;;;;;;;5.50;99.90;;;;;;4979671;28;20299;-84
2022/01/02 08:37:03;;;;;;;;;;;5.50;99.90;;;;;;4977960;28;19922;-84
2022/01/02 08:39:30;;;;;;;;;;;5.50;99.90;;;;;;4965042;28;19934;-83
2022/01/02 08:41:57;;;;;;;;;;;5.50;99.90;;;;;;4964639;28;20020;-83
2022/01/02 08:44:24;;;;;;;;;;;5.50;99.90;;;;;;4963312;28;19929;-83
2022/01/02 08:46:51;;;;;;;;;;;5.50;99.90;;;;;;4964092;28;19925;-83
2022/01/02 08:49:18;;;;;;;;;;;5.50;99.90;;;;;;4966767;28;20384;-83
2022/01/02 08:51:45;;;;;;;;;;;5.50;99.90;;;;;;4966151;28;19985;-83
2022/01/02 08:54:12;;;;;;;;;;;5.50;99.90;;;;;;4965093;28;19972;-83
2022/01/02 08:56:39;;;;;;;;;;;5.50;99.90;;;;;;4962003;28;20406;-83
2022/01/02 08:59:06;;;;;;;;;;;5.50;99.90;;;;;;4966041;28;20300;-83
2022/01/02 09:01:33;;;;;;;;;;;5.60;99.90;;;;;;4963900;28;19922;-83
2022/01/02 09:03:59;;;;;;;;;;;5.60;99.90;;;;;;4965072;28;19984;-83
2022/01/02 09:06:27;;;;;;;;;;;5.60;99.90;;;;;;4949676;28;19926;-83
2022/01/02 09:08:55;;;;;;;;;;;5.70;99.90;;;;;;4966810;28;20514;-83
2022/01/02 09:11:22;;;;;;;;;;;5.70;99.90;;;;;;4947630;28;19922;-83
2022/01/02 09:13:49;;;;;;;;;;;5.80;99.90;;;;;;4949354;28;20009;-83
2022/01/02 09:16:16;;;;;;;;;;;5.80;99.90;;;;;;4964696;28;20554;-83
2022/01/02 09:18:43;;;;;;;;;;;5.80;99.90;;;;;;4948619;28;19922;-83
2022/01/02 09:21:09;;;;;;;;;;;5.80;99.90;;;;;;4949436;28;19926;-83
2022/01/02 09:23:36;;;;;;;;;;;5.80;99.90;;;;;;4949641;28;20040;-83
2022/01/02 09:26:03;;;;;;;;;;;5.80;99.90;;;;;;4950328;28;19957;-83
2022/01/02 09:28:30;;;;;;;;;;;5.90;99.90;;;;;;4947053;28;19933;-83
2022/01/02 09:30:57;;;;;;;;;;;5.90;99.90;;;;;;4949617;28;19933;-83
2022/01/02 09:33:40;;;;;;;;;;;5.90;99.90;;;;;;1820711;28;10022035;-83
2022/01/02 09:36:07;;;;;;;;;;;5.90;99.90;;;;;;4616565;28;10000880;-83
2022/01/02 09:38:34;;;;;;;;;;;5.90;99.90;;;;;;4969609;28;19925;-83
2022/01/02 09:41:01;;;;;;;;;;;5.90;99.90;;;;;;4969632;28;19936;-83
2022/01/02 09:43:27;;;;;;;;;;;5.90;99.90;;;;;;4970999;28;19985;-83
2022/01/02 09:45:54;;;;;;;;;;;5.90;99.90;;;;;;4963867;28;20565;-83
2022/01/02 09:48:21;;;;;;;;;;;5.80;99.90;;;;;;4984625;28;19926;-83
2022/01/02 09:50:50;;;;;;;;;;;5.80;99.90;;;;;;4966392;28;19922;-83
2022/01/02 09:53:16;;;;;;;;;;;5.90;99.90;;;;;;4968001;28;19929;-83
2022/01/02 09:55:43;;;;;;;;;;;5.90;99.90;;;;;;4971754;28;19984;-83
2022/01/02 09:58:11;;;;;;;;;;;5.90;99.90;;;;;;4963668;28;19926;-83
2022/01/02 10:00:44;;;;;;;;;;;5.90;99.90;;;;;;4947817;28;20380;-83
2022/01/02 10:03:11;;;;;;;;;;;6.00;99.90;;;;;;4948420;28;20283;-83
2022/01/02 10:05:51;;;;;;;;;;;6.00;99.90;;;;;;4949107;28;19940;-83
2022/01/02 10:08:25;;;;;;;;;;;6.10;99.90;;;;;;4947407;28;19926;-83
2022/01/02 10:11:07;;;;;;;;;;;6.10;99.90;;;;;;4961102;28;19941;-83
2022/01/02 10:13:38;;;;;;;;;;;6.10;99.90;;;;;;4939810;28;19930;-83
2022/01/02 10:16:17;;;;;;;;;;;6.10;99.90;;;;;;4949602;28;19949;-83
2022/01/02 10:18:45;;;;;;;;;;;6.10;99.90;;;;;;4959759;28;19932;-83
2022/01/02 10:21:25;;;;;;;;;;;6.10;99.90;;;;;;4950842;28;19969;-83
2022/01/02 10:24:08;;;;;;;;;;;6.10;99.90;;;;;;4963411;28;20479;-83
2022/01/02 10:26:35;;;;;;;;;;;6.10;99.90;;;;;;4947979;28;19934;-83
2022/01/02 10:29:12;;;;;;;;;;;6.10;99.90;;;;;;4941200;28;19983;-83
2022/01/02 10:31:39;;;;;;;;;;;6.10;99.90;;;;;;4955548;28;19930;-83
2022/01/02 10:34:06;;;;;;;;;;;6.10;99.90;;;;;;4949587;28;20250;-83
2022/01/02 10:36:34;;;;;;;;;;;6.10;99.90;;;;;;4947026;28;19945;-83
2022/01/02 10:39:04;;;;;;;;;;;6.10;99.90;;;;;;4949406;28;19985;-83
2022/01/02 10:41:33;;;;;;;;;;;6.10;99.90;;;;;;4961457;28;19929;-83
2022/01/02 10:44:20;;;;;;;;;;;6.10;99.90;;;;;;4946055;28;20300;-83
2022/01/02 10:47:05;;;;;;;;;;;6.00;99.90;;;;;;4963240;28;19941;-83
2022/01/02 10:49:52;;;;;;;;;;;6.00;99.90;;;;;;4981756;28;20195;-83
2022/01/02 10:52:24;;;;;;;;;;;5.90;99.90;;;;;;4967663;28;20009;-83
2022/01/02 10:54:51;;;;;;;;;;;5.90;99.90;;;;;;4966008;28;19932;-83
2022/01/02 10:57:18;;;;;;;;;;;5.90;99.90;;;;;;4967213;28;20068;-83
2022/01/02 10:59:46;;;;;;;;;;;5.90;99.90;;;;;;4968133;28;20278;-83
2022/01/02 11:02:13;;;;;;;;;;;5.90;99.90;;;;;;4967717;28;20383;-83
2022/01/02 11:04:57;;;;;;;;;;;5.90;99.90;;;;;;4966287;28;19948;-83
2022/01/02 11:07:25;;;;;;;;;;;6.00;99.90;;;;;;4969358;28;19922;-83
2022/01/02 11:09:53;;;;;;;;;;;6.00;99.90;;;;;;4965188;28;20001;-83
2022/01/02 11:12:25;;;;;;;;;;;6.00;99.90;;;;;;4967396;28;19922;-83
2022/01/02 11:14:52;;;;;;;;;;;6.00;99.90;;;;;;4967594;28;19922;-83
2022/01/02 11:17:20;;;;;;;;;;;6.00;99.90;;;;;;4967558;28;19940;-83
2022/01/02 11:19:46;;;;;;;;;;;6.10;99.90;;;;;;4980951;28;19926;-83
2022/01/02 11:22:28;;;;;;;;;;;6.10;99.90;;;;;;4967861;28;19937;-83
2022/01/02 11:25:04;;;;;;;;;;;6.00;99.90;;;;;;4979079;28;19922;-84
2022/01/02 11:27:54;;;;;;;;;;;6.10;99.90;;;;;;4964163;28;19926;-83
2022/01/02 11:30:31;;;;;;;;;;;6.10;99.90;;;;;;4962236;28;19926;-83
2022/01/02 11:33:13;;;;;;;;;;;6.10;99.90;;;;;;1763687;28;10021881;-83
2022/01/02 11:35:44;;;;;;;;;;;6.10;99.90;;;;;;4620577;28;10000886;-83
2022/01/02 11:38:11;;;;;;;;;;;6.10;99.90;;;;;;4967053;28;19926;-83
2022/01/02 11:40:45;;;;;;;;;;;6.10;99.90;;;;;;4978254;28;20025;-83
2022/01/02 11:43:31;;;;;;;;;;;6.20;99.90;;;;;;4964523;28;19928;-82
2022/01/02 11:46:17;;;;;;;;;;;6.20;99.90;;;;;;4952657;28;19934;-82
2022/01/02 11:49:13;;;;;;;;;;;6.20;99.90;;;;;;4978675;28;19985;-82
2022/01/02 11:51:53;;;;;;;;;;;6.20;99.90;;;;;;4962500;28;19926;-82
2022/01/02 11:54:33;;;;;;;;;;;6.10;99.90;;;;;;4978842;28;19949;-82
2022/01/02 11:57:03;;;;;;;;;;;6.10;99.90;;;;;;4960025;28;19926;-82
2022/01/02 11:59:39;;;;;;;;;;;6.00;99.90;;;;;;4956990;28;19926;-82
2022/01/02 12:02:10;;;;;;;;;;;6.00;99.90;;;;;;4975554;28;19929;-82
2022/01/02 12:04:56;;;;;;;;;;;6.00;99.90;;;;;;4962381;28;19932;-82
2022/01/02 12:07:45;;;;;;;;;;;5.90;99.90;;;;;;4967538;28;19926;-82
2022/01/02 12:10:15;;;;;;;;;;;6.00;99.90;;;;;;4961243;28;20510;-82
2022/01/02 12:13:06;;;;;;;;;;;5.90;99.90;;;;;;4954830;28;19953;-82
2022/01/02 12:15:32;;;;;;;;;;;5.90;99.90;;;;;;4964863;28;19926;-82
2022/01/02 12:18:31;;;;;;;;;;;6.00;99.90;;;;;;4963792;28;19929;-83
2022/01/02 12:21:00;;;;;;;;;;;6.00;99.90;;;;;;4964263;28;20430;-83
2022/01/02 12:23:30;;;;;;;;;;;5.90;99.90;;;;;;4965715;28;19972;-83
2022/01/02 12:25:58;;;;;;;;;;;5.90;99.90;;;;;;4965207;28;19981;-83
2022/01/02 12:28:25;;;;;;;;;;;5.90;99.90;;;;;;4964850;28;20600;-83
2022/01/02 12:30:52;;;;;;;;;;;5.90;99.90;;;;;;4965622;28;19923;-83
2022/01/02 12:33:23;;;;;;;;;;;5.90;99.90;;;;;;4961368;28;20340;-83
2022/01/02 12:35:50;;;;;;;;;;;5.90;99.90;;;;;;4963153;28;19922;-83
2022/01/02 12:38:17;;;;;;;;;;;5.90;99.90;;;;;;4963902;28;19922;-83
2022/01/02 12:40:44;;;;;;;;;;;5.90;99.90;;;;;;4959970;28;20343;-83
2022/01/02 12:43:11;;;;;;;;;;;5.90;99.90;;;;;;4964675;28;19929;-83
2022/01/02 12:45:39;;;;;;;;;;;5.80;99.90;;;;;;4958330;28;19922;-83
2022/01/02 12:48:06;;;;;;;;;;;5.90;99.90;;;;;;4966798;28;19929;-83
2022/01/02 12:50:33;;;;;;;;;;;5.90;99.90;;;;;;4975567;28;19949;-83
2022/01/02 12:53:01;;;;;;;;;;;5.90;99.90;;;;;;4967038;28;19968;-83
2022/01/02 12:55:29;;;;;;;;;;;5.90;99.90;;;;;;4964332;28;19934;-83
2022/01/02 12:58:03;;;;;;;;;;;5.80;99.90;;;;;;4966532;28;20332;-83
2022/01/02 13:00:30;;;;;;;;;;;5.80;99.90;;;;;;4961469;28;20525;-83
2022/01/02 13:02:57;;;;;;;;;;;5.80;99.90;;;;;;4964389;28;19926;-83
2022/01/02 13:05:25;;;;;;;;;;;5.80;99.90;;;;;;4985939;28;19985;-84
2022/01/02 13:07:59;;;;;;;;;;;5.80;99.90;;;;;;4972413;28;19922;-83
2022/01/02 13:10:26;;;;;;;;;;;5.80;99.90;;;;;;4961507;28;20382;-83
2022/01/02 13:12:53;;;;;;;;;;;5.80;99.90;;;;;;4976164;28;19929;-83
2022/01/02 13:15:20;;;;;;;;;;;5.80;99.90;;;;;;4965503;28;19942;-83
2022/01/02 13:17:53;;;;;;;;;;;5.90;99.90;;;;;;4966311;28;19922;-83
2022/01/02 13:20:38;;;;;;;;;;;5.80;99.90;;;;;;4971283;28;19932;-83
2022/01/02 13:23:06;;;;;;;;;;;5.90;99.90;;;;;;4979760;28;19926;-83
2022/01/02 13:25:34;;;;;;;;;;;5.80;99.90;;;;;;4965739;28;19926;-83
2022/01/02 13:28:01;;;;;;;;;;;5.80;99.90;;;;;;4965936;28;19922;-83
2022/01/02 13:30:38;;;;;;;;;;;5.90;99.90;;;;;;4961588;28;19930;-83
2022/01/02 13:33:21;;;;;;;;;;;5.90;99.90;;;;;;1772588;28;10002108;-83
2022/01/02 13:35:49;;;;;;;;;;;5.90;99.90;;;;;;4956044;28;19938;-83
2022/01/02 13:38:17;;;;;;;;;;;5.90;99.90;;;;;;4966826;28;20008;-83
2022/01/02 13:40:46;;;;;;;;;;;5.90;99.90;;;;;;4962588;28;19922;-83
2022/01/02 13:43:13;;;;;;;;;;;5.90;99.90;;;;;;4965120;28;19992;-83
2022/01/02 13:45:43;;;;;;;;;;;6.00;99.90;;;;;;4963280;28;19922;-83
2022/01/02 13:48:16;;;;;;;;;;;6.00;99.90;;;;;;4967279;28;21316;-83
2022/01/02 13:50:44;;;;;;;;;;;6.00;99.90;;;;;;4980275;28;19922;-83
2022/01/02 13:53:19;;;;;;;;;;;6.00;99.90;;;;;;4966252;28;20021;-83
2022/01/02 13:55:50;;;;;;;;;;;6.00;99.90;;;;;;4958127;28;19966;-83
2022/01/02 13:58:20;;;;;;;;;;;6.00;99.90;;;;;;4974107;28;19977;-83
2022/01/02 14:01:04;;;;;;;;;;;5.90;99.90;;;;;;4978671;28;20232;-83
2022/01/02 14:03:36;;;;;;;;;;;6.00;99.90;;;;;;4969749;28;20103;-83
2022/01/02 14:06:13;;;;;;;;;;;6.00;99.90;;;;;;4978174;28;19945;-83
2022/01/02 14:08:41;;;;;;;;;;;6.00;99.90;;;;;;4965811;28;19926;-83
2022/01/02 14:11:28;;;;;;;;;;;6.00;99.90;;;;;;4983011;28;19922;-83
2022/01/02 14:14:11;;;;;;;;;;;6.00;99.90;;;;;;4964215;28;19922;-83
2022/01/02 14:17:00;;;;;;;;;;;6.00;99.90;;;;;;4962956;28;20457;-83
2022/01/02 14:19:27;;;;;;;;;;;6.00;99.90;;;;;;4981527;28;19948;-83
2022/01/02 14:21:54;;;;;;;;;;;6.00;99.90;;;;;;4966809;28;19930;-83
2022/01/02 14:24:21;;;;;;;;;;;6.00;99.90;;;;;;4969203;28;20006;-83
2022/01/02 14:26:49;;;;;;;;;;;6.00;99.90;;;;;;4964994;28;19926;-83
2022/01/02 14:29:16;;;;;;;;;;;6.00;99.90;;;;;;4967557;28;20033;-83
2022/01/02 14:31:43;;;;;;;;;;;6.00;99.90;;;;;;4966205;28;20057;-83
2022/01/02 14:34:10;;;;;;;;;;;6.00;99.90;;;;;;4970168;28;19933;-83
2022/01/02 14:36:37;;;;;;;;;;;6.00;99.90;;;;;;4966126;28;19961;-83
2022/01/02 14:39:08;;;;;;;;;;;6.00;99.90;;;;;;4969113;28;19929;-83
2022/01/02 14:41:37;;;;;;;;;;;6.00;99.90;;;;;;4967621;28;20478;-83
2022/01/02 14:44:05;;;;;;;;;;;6.00;99.90;;;;;;4966298;28;19994;-83
2022/01/02 14:46:32;;;;;;;;;;;5.90;99.90;;;;;;4964422;28;19933;-83
2022/01/02 14:48:59;;;;;;;;;;;5.90;99.90;;;;;;4966582;28;19976;-83
2022/01/02 14:51:26;;;;;;;;;;;5.90;99.90;;;;;;4967900;28;20526;-83